createdAt,value
2019-04-25T00:01:38.687Z,15.60
2019-04-25T00:04:07.540Z,15.50
2019-04-25T00:06:37.201Z,15.50
2019-04-25T00:09:11.846Z,15.60
2019-04-25T00:11:43.006Z,15.50
2019-04-25T00:14:13.230Z,15.50
2019-04-25T00:16:44.129Z,15.50
2019-04-25T00:19:13.361Z,15.50
2019-04-25T00:21:46.712Z,15.50
2019-04-25T00:24:32.976Z,15.50
2019-04-25T00:27:02.228Z,15.40
2019-04-25T00:29:31.894Z,15.30
2019-04-25T00:32:01.631Z,15.30
2019-04-25T00:34:31.645Z,15.30
2019-04-25T00:37:02.357Z,15.20
2019-04-25T00:39:31.930Z,15.20
2019-04-25T00:42:03.120Z,15.20
2019-04-25T00:44:31.955Z,15.10
2019-04-25T00:47:02.251Z,15.00
2019-04-25T00:49:32.238Z,15.00
2019-04-25T00:52:01.940Z,14.90
2019-04-25T00:54:33.066Z,14.80
2019-04-25T00:57:02.167Z,14.80
2019-04-25T00:59:35.236Z,14.80
2019-04-25T01:02:14.464Z,14.80
2019-04-25T01:04:43.829Z,14.80
2019-04-25T01:07:12.729Z,14.70
2019-04-25T01:09:42.347Z,14.70
2019-04-25T01:12:12.397Z,14.80
2019-04-25T01:14:42.005Z,14.80
2019-04-25T01:17:11.699Z,14.80
2019-04-25T01:19:40.543Z,14.80
2019-04-25T01:22:09.390Z,14.90
2019-04-25T01:24:37.958Z,14.90
2019-04-25T01:27:07.349Z,14.90
2019-04-25T01:29:35.898Z,14.90
2019-04-25T01:32:06.445Z,14.90
2019-04-25T01:34:54.632Z,14.90
2019-04-25T01:37:26.994Z,14.90
2019-04-25T01:39:57.302Z,14.90
2019-04-25T01:42:29.973Z,15.00
2019-04-25T01:44:58.956Z,14.90
2019-04-25T01:47:27.863Z,15.00
2019-04-25T01:49:56.716Z,15.00
2019-04-25T01:52:25.379Z,15.00
2019-04-25T01:54:55.673Z,15.00
2019-04-25T01:57:24.154Z,15.00
2019-04-25T01:59:54.080Z,15.00
2019-04-25T02:02:24.504Z,14.90
2019-04-25T02:04:55.082Z,14.90
2019-04-25T02:07:23.452Z,14.90
2019-04-25T02:09:54.762Z,14.80
2019-04-25T02:12:24.312Z,14.80
2019-04-25T02:14:54.622Z,14.90
2019-04-25T02:17:24.124Z,14.90
2019-04-25T02:19:55.210Z,14.90
2019-04-25T02:22:24.316Z,14.90
2019-04-25T02:24:54.952Z,14.90
2019-04-25T02:27:24.243Z,14.90
2019-04-25T02:29:55.208Z,14.90
2019-04-25T02:32:24.746Z,14.80
2019-04-25T02:34:58.917Z,14.80
2019-04-25T02:37:25.548Z,14.80
2019-04-25T02:39:57.234Z,14.70
2019-04-25T02:42:24.762Z,14.70
2019-04-25T02:45:08.658Z,14.70
2019-04-25T02:47:50.957Z,14.70
2019-04-25T02:50:21.439Z,14.70
2019-04-25T02:52:51.650Z,14.60
2019-04-25T02:55:31.150Z,14.60
2019-04-25T02:57:50.505Z,14.60
2019-04-25T03:00:26.500Z,14.60
2019-04-25T03:02:57.320Z,14.50
2019-04-25T03:05:25.657Z,14.50
2019-04-25T03:07:54.586Z,14.60
2019-04-25T03:10:26.646Z,14.60
2019-04-25T03:12:54.426Z,14.50
2019-04-25T03:15:24.390Z,14.50
2019-04-25T03:17:54.643Z,14.50
2019-04-25T03:20:45.146Z,14.50
2019-04-25T03:23:35.062Z,14.50
2019-04-25T03:26:05.814Z,14.50
2019-04-25T03:28:34.801Z,14.40
2019-04-25T03:31:08.128Z,14.40
2019-04-25T03:33:37.863Z,14.40
2019-04-25T03:36:05.541Z,14.40
2019-04-25T03:38:34.311Z,14.30
2019-04-25T03:41:04.443Z,14.30
2019-04-25T03:43:33.281Z,14.20
2019-04-25T03:46:04.590Z,14.10
2019-04-25T03:48:35.226Z,14.00
2019-04-25T03:51:04.571Z,14.00
2019-04-25T03:53:33.805Z,13.90
2019-04-25T03:56:04.760Z,13.80
2019-04-25T03:58:33.764Z,13.70
2019-04-25T04:01:03.910Z,13.70
2019-04-25T04:03:33.917Z,13.60
2019-04-25T04:06:04.345Z,13.60
2019-04-25T04:08:34.283Z,13.50
2019-04-25T04:11:07.122Z,13.50
2019-04-25T04:13:35.093Z,13.40
2019-04-25T04:16:05.151Z,13.40
2019-04-25T04:18:44.606Z,13.40
2019-04-25T04:24:14.117Z,13.30
2019-04-25T04:26:44.702Z,13.30
2019-04-25T04:29:14.130Z,13.20
2019-04-25T04:31:43.475Z,13.20
2019-04-25T04:34:14.335Z,13.20
2019-04-25T04:36:43.660Z,13.20
2019-04-25T04:39:13.862Z,13.10
2019-04-25T04:41:43.627Z,13.10
2019-04-25T04:44:14.000Z,13.10
2019-04-25T04:46:43.943Z,13.10
2019-04-25T04:49:14.183Z,13.10
2019-04-25T04:51:44.319Z,13.20
2019-04-25T04:54:13.560Z,13.30
2019-04-25T04:56:43.818Z,13.40
2019-04-25T04:59:14.309Z,13.60
2019-04-25T05:02:03.248Z,13.80
2019-04-25T05:04:43.592Z,13.90
2019-04-25T05:07:19.690Z,14.10
2019-04-25T05:09:48.312Z,14.30
2019-04-25T05:12:17.505Z,14.50
2019-04-25T05:14:46.223Z,14.70
2019-04-25T05:17:15.478Z,14.90
2019-04-25T05:19:45.006Z,15.10
2019-04-25T05:22:14.922Z,15.30
2019-04-25T05:24:43.872Z,15.60
2019-04-25T05:27:14.964Z,15.80
2019-04-25T05:29:43.941Z,16.00
2019-04-25T05:32:13.238Z,16.20
2019-04-25T05:34:44.110Z,16.50
2019-04-25T05:37:14.345Z,16.80
2019-04-25T05:39:43.522Z,17.00
2019-04-25T05:42:20.316Z,17.30
2019-04-25T05:44:48.899Z,17.50
2019-04-25T05:47:20.453Z,17.60
2019-04-25T05:49:49.156Z,17.90
2019-04-25T05:52:17.964Z,18.10
2019-04-25T05:54:47.037Z,18.00
2019-04-25T05:57:16.603Z,17.80
2019-04-25T05:59:45.396Z,17.80
2019-04-25T06:02:14.175Z,17.70
2019-04-25T06:04:43.592Z,17.60
2019-04-25T06:07:12.305Z,17.70
2019-04-25T06:09:44.360Z,17.60
2019-04-25T06:12:18.203Z,17.80
2019-04-25T06:14:47.037Z,17.80
2019-04-25T06:17:37.993Z,17.90
2019-04-25T06:20:09.341Z,18.30
2019-04-25T06:22:48.756Z,18.40
2019-04-25T06:25:21.086Z,18.60
2019-04-25T06:27:56.396Z,19.00
2019-04-25T06:30:24.939Z,19.50
2019-04-25T06:32:53.515Z,20.00
2019-04-25T06:35:24.717Z,20.50
2019-04-25T06:37:53.689Z,20.90
2019-04-25T06:40:24.163Z,21.60
2019-04-25T06:42:53.561Z,21.10
2019-04-25T06:45:45.321Z,20.60
2019-04-25T06:48:18.568Z,21.50
2019-04-25T06:50:47.049Z,22.90
2019-04-25T06:53:18.159Z,23.10
2019-04-25T06:55:46.737Z,24.00
2019-04-25T06:58:15.275Z,24.50
2019-04-25T07:00:57.473Z,25.40
2019-04-25T07:03:15.498Z,25.60
2019-04-25T07:05:44.384Z,26.00
2019-04-25T07:08:13.355Z,25.80
2019-04-25T07:10:42.078Z,25.80
2019-04-25T07:13:10.623Z,25.10
2019-04-25T07:15:39.208Z,25.60
2019-04-25T07:18:07.779Z,25.80
2019-04-25T07:20:36.364Z,25.40
2019-04-25T07:23:05.034Z,24.80
2019-04-25T07:25:36.633Z,24.90
2019-04-25T07:28:27.317Z,24.60
2019-04-25T07:30:58.292Z,24.30
2019-04-25T07:33:44.504Z,24.80
2019-04-25T07:36:13.853Z,24.60
2019-04-25T07:38:43.549Z,24.80
2019-04-25T07:41:14.656Z,24.70
2019-04-25T07:43:43.337Z,24.90
2019-04-25T07:46:13.473Z,25.00
2019-04-25T07:48:43.658Z,25.00
2019-04-25T07:51:16.187Z,25.20
2019-04-25T07:53:43.639Z,25.30
2019-04-25T07:56:14.092Z,25.70
2019-04-25T07:58:50.577Z,25.60
2019-04-25T08:01:15.063Z,26.00
2019-04-25T08:03:44.059Z,26.10
2019-04-25T08:06:13.843Z,26.00
2019-04-25T08:08:43.601Z,25.90
2019-04-25T08:11:14.023Z,26.50
2019-04-25T08:13:50.399Z,26.70
2019-04-25T08:16:20.603Z,27.40
2019-04-25T08:18:49.897Z,27.80
2019-04-25T08:21:18.491Z,28.30
2019-04-25T08:23:47.845Z,28.70
2019-04-25T08:26:16.503Z,28.90
2019-04-25T08:28:54.397Z,29.00
2019-04-25T08:31:15.255Z,28.40
2019-04-25T08:33:46.485Z,28.70
2019-04-25T08:36:14.056Z,28.60
2019-04-25T08:38:44.545Z,28.20
2019-04-25T08:41:14.022Z,28.80
2019-04-25T08:43:43.665Z,28.90
2019-04-25T08:46:13.952Z,28.50
2019-04-25T08:49:02.285Z,29.60
2019-04-25T08:51:47.583Z,30.60
2019-04-25T08:54:20.227Z,31.40
2019-04-25T08:56:48.812Z,32.10
2019-04-25T08:59:41.928Z,32.20
2019-04-25T09:02:34.900Z,32.30
2019-04-25T09:05:24.209Z,32.80
2019-04-25T09:07:54.361Z,32.80
2019-04-25T09:10:23.777Z,33.60
2019-04-25T09:12:53.775Z,33.30
2019-04-25T09:15:23.989Z,33.80
2019-04-25T09:17:54.642Z,33.80
2019-04-25T09:20:23.587Z,33.70
2019-04-25T09:22:54.390Z,33.30
2019-04-25T09:25:23.911Z,33.80
2019-04-25T09:27:54.184Z,34.10
2019-04-25T09:30:24.087Z,34.00
2019-04-25T09:32:54.352Z,33.70
2019-04-25T09:35:23.647Z,34.10
2019-04-25T09:37:53.555Z,34.50
2019-04-25T09:40:24.005Z,34.60
2019-04-25T09:42:53.760Z,34.70
2019-04-25T09:45:26.919Z,35.10
2019-04-25T09:47:57.212Z,34.20
2019-04-25T09:50:33.948Z,34.40
2019-04-25T09:53:04.471Z,34.60
2019-04-25T09:55:46.813Z,34.90
2019-04-25T09:58:23.850Z,34.70
2019-04-25T10:00:56.966Z,35.60
2019-04-25T10:03:27.055Z,36.30
2019-04-25T10:05:55.616Z,35.50
2019-04-25T10:08:24.279Z,33.60
2019-04-25T10:10:53.847Z,33.60
2019-04-25T10:13:23.517Z,34.60
2019-04-25T10:15:56.535Z,34.70
2019-04-25T10:18:25.187Z,35.40
2019-04-25T10:20:54.222Z,35.60
2019-04-25T10:23:24.061Z,35.70
2019-04-25T10:25:53.797Z,35.50
2019-04-25T10:28:23.374Z,34.40
2019-04-25T10:30:53.162Z,34.30
2019-04-25T10:33:24.397Z,33.90
2019-04-25T10:35:58.862Z,33.80
2019-04-25T10:38:28.815Z,34.10
2019-04-25T10:40:57.812Z,34.70
2019-04-25T10:43:26.429Z,35.00
2019-04-25T10:45:55.217Z,35.00
2019-04-25T10:48:24.154Z,35.50
2019-04-25T10:50:53.894Z,35.30
2019-04-25T10:53:23.258Z,35.30
2019-04-25T10:55:53.782Z,35.20
2019-04-25T10:58:22.480Z,34.50
2019-04-25T11:00:52.909Z,34.50
2019-04-25T11:03:35.322Z,34.70
2019-04-25T11:06:04.311Z,34.10
2019-04-25T11:08:34.067Z,34.10
2019-04-25T11:11:03.727Z,34.40
2019-04-25T11:13:33.960Z,34.40
2019-04-25T11:16:03.537Z,34.60
2019-04-25T11:18:33.896Z,35.40
2019-04-25T11:21:05.592Z,35.60
2019-04-25T11:23:32.800Z,35.00
2019-04-25T11:26:01.378Z,34.00
2019-04-25T11:28:29.935Z,32.50
2019-04-25T11:30:58.589Z,32.30
2019-04-25T11:33:27.758Z,31.60
2019-04-25T11:35:56.583Z,31.30
2019-04-25T11:38:42.679Z,30.80
2019-04-25T11:41:16.591Z,30.50
2019-04-25T11:43:46.302Z,30.40
2019-04-25T11:46:16.710Z,29.80
2019-04-25T11:48:46.318Z,29.60
2019-04-25T11:51:15.365Z,29.30
2019-04-25T11:53:45.100Z,28.90
2019-04-25T11:56:14.427Z,28.90
2019-04-25T11:58:46.832Z,29.10
2019-04-25T12:01:17.598Z,28.80
2019-04-25T12:03:47.932Z,28.30
2019-04-25T12:06:16.877Z,27.60
2019-04-25T12:08:46.802Z,27.00
2019-04-25T12:11:15.788Z,27.00
2019-04-25T12:13:45.993Z,26.80
2019-04-25T12:16:15.017Z,26.70
2019-04-25T12:18:46.549Z,26.40
2019-04-25T12:21:13.862Z,26.40
2019-04-25T12:23:45.036Z,26.30
2019-04-25T12:26:14.189Z,26.00
2019-04-25T12:28:42.783Z,25.90
2019-04-25T12:31:17.139Z,26.00
2019-04-25T12:33:47.625Z,26.00
2019-04-25T12:36:15.952Z,26.10
2019-04-25T12:38:46.049Z,26.10
2019-04-25T12:41:14.755Z,26.20
2019-04-25T12:43:45.753Z,26.30
2019-04-25T12:46:18.584Z,26.50
2019-04-25T12:48:47.660Z,26.50
2019-04-25T12:51:16.303Z,26.30
2019-04-25T12:53:46.473Z,26.20
2019-04-25T12:56:15.279Z,26.00
2019-04-25T12:58:43.849Z,26.10
2019-04-25T13:01:13.139Z,26.20
2019-04-25T13:03:41.788Z,26.30
2019-04-25T13:06:10.468Z,26.30
2019-04-25T13:08:39.002Z,26.30
2019-04-25T13:11:10.515Z,26.40
2019-04-25T13:13:38.694Z,26.50
2019-04-25T13:16:07.203Z,26.50
2019-04-25T13:18:35.691Z,26.50
2019-04-25T13:21:05.416Z,26.10
2019-04-25T13:23:34.327Z,25.90
2019-04-25T13:26:05.279Z,25.90
2019-04-25T13:28:34.883Z,26.00
2019-04-25T13:31:21.248Z,26.10
2019-04-25T13:33:54.479Z,25.70
2019-04-25T13:36:24.103Z,25.70
2019-04-25T13:38:54.007Z,25.60
2019-04-25T13:41:22.812Z,25.50
2019-04-25T13:43:53.093Z,25.30
2019-04-25T13:46:24.632Z,25.20
2019-04-25T13:48:51.927Z,25.20
2019-04-25T13:51:20.681Z,25.10
2019-04-25T13:53:49.289Z,25.10
2019-04-25T13:56:18.113Z,24.90
2019-04-25T13:58:46.685Z,24.80
2019-04-25T14:01:17.559Z,24.80
2019-04-25T14:03:46.286Z,24.70
2019-04-25T14:06:14.937Z,24.70
2019-04-25T14:08:51.038Z,24.70
2019-04-25T14:11:20.580Z,24.60
2019-04-25T14:13:49.859Z,24.60
2019-04-25T14:16:30.077Z,24.60
2019-04-25T14:19:00.523Z,24.60
2019-04-25T14:21:29.276Z,24.50
2019-04-25T14:23:57.837Z,24.40
2019-04-25T14:26:27.073Z,24.40
2019-04-25T14:28:55.668Z,24.30
2019-04-25T14:31:41.237Z,24.20
2019-04-25T14:33:55.346Z,24.20
2019-04-25T14:36:25.802Z,24.20
2019-04-25T14:38:54.202Z,24.20
2019-04-25T14:41:23.684Z,24.20
2019-04-25T14:43:52.524Z,24.20
2019-04-25T14:46:21.196Z,24.20
2019-04-25T14:48:50.313Z,24.30
2019-04-25T14:51:19.128Z,24.30
2019-04-25T14:53:47.684Z,24.30
2019-04-25T14:56:17.951Z,24.20
2019-04-25T14:58:46.919Z,24.20
2019-04-25T15:01:17.244Z,24.20
2019-04-25T15:03:45.876Z,24.20
2019-04-25T15:06:14.598Z,24.20
2019-04-25T15:08:43.207Z,24.20
2019-04-25T15:11:11.762Z,24.20
2019-04-25T15:13:40.291Z,24.10
2019-04-25T15:16:09.012Z,24.10
2019-04-25T15:18:46.377Z,24.10
2019-04-25T15:21:09.358Z,24.10
2019-04-25T15:23:37.895Z,24.00
2019-04-25T15:26:06.566Z,24.00
2019-04-25T15:28:35.153Z,24.00
2019-04-25T15:31:03.754Z,24.00
2019-04-25T15:33:33.077Z,24.00
2019-04-25T15:36:21.631Z,24.00
2019-04-25T15:38:51.799Z,24.00
2019-04-25T15:41:25.029Z,24.00
2019-04-25T15:44:11.570Z,24.00
2019-04-25T15:46:44.569Z,24.00
2019-04-25T15:49:14.693Z,24.00
2019-04-25T15:51:43.270Z,24.00
2019-04-25T15:54:11.826Z,24.00
2019-04-25T15:56:40.413Z,24.00
2019-04-25T15:59:09.159Z,24.00
2019-04-25T16:01:37.792Z,24.00
2019-04-25T16:04:06.345Z,24.10
2019-04-25T16:06:34.878Z,24.10
2019-04-25T16:09:05.475Z,24.10
2019-04-25T16:11:34.942Z,24.10
2019-04-25T16:14:04.081Z,24.00
2019-04-25T16:16:33.256Z,24.00
2019-04-25T16:19:01.969Z,24.00
2019-04-25T16:21:31.172Z,24.00
2019-04-25T16:24:00.074Z,24.00
2019-04-25T16:26:29.447Z,24.00
2019-04-25T16:28:58.131Z,24.00
2019-04-25T16:31:26.744Z,24.00
2019-04-25T16:33:55.353Z,23.90
2019-04-25T16:36:23.885Z,23.90
2019-04-25T16:38:52.480Z,23.90
2019-04-25T16:41:21.736Z,23.90
2019-04-25T16:43:51.947Z,23.90
2019-04-25T16:46:21.297Z,23.90
2019-04-25T16:48:49.906Z,23.90
2019-04-25T16:51:18.790Z,23.90
2019-04-25T16:53:47.359Z,23.90
2019-04-25T16:56:15.961Z,23.80
2019-04-25T16:58:44.705Z,23.90
2019-04-25T17:01:14.295Z,23.80
2019-04-25T17:03:43.670Z,23.80
2019-04-25T17:06:12.317Z,23.80
2019-04-25T17:08:40.877Z,23.80
2019-04-25T17:11:11.862Z,23.80
2019-04-25T17:13:42.597Z,23.80
2019-04-25T17:16:15.784Z,23.80
2019-04-25T17:18:46.019Z,23.80
2019-04-25T17:21:14.570Z,23.80
2019-04-25T17:23:43.656Z,23.70
2019-04-25T17:26:12.680Z,23.70
2019-04-25T17:28:42.986Z,23.70
2019-04-25T17:31:13.275Z,23.60
2019-04-25T17:33:47.456Z,23.60
2019-04-25T17:36:17.663Z,23.60
2019-04-25T17:38:47.973Z,23.50
2019-04-25T17:41:16.552Z,23.50
2019-04-25T17:43:45.135Z,23.40
2019-04-25T17:46:15.361Z,23.40
2019-04-25T17:48:43.968Z,23.30
2019-04-25T17:51:12.542Z,23.30
2019-04-25T17:53:41.267Z,23.20
2019-04-25T17:56:09.927Z,23.20
2019-04-25T17:58:39.151Z,23.20
2019-04-25T18:01:08.870Z,23.10
2019-04-25T18:03:37.475Z,23.10
2019-04-25T18:06:06.055Z,22.90
2019-04-25T18:08:35.612Z,22.90
2019-04-25T18:11:04.755Z,22.80
2019-04-25T18:13:34.366Z,22.80
2019-04-25T18:16:07.733Z,22.70
2019-04-25T18:18:49.831Z,22.60
2019-04-25T18:21:18.374Z,22.60
2019-04-25T18:23:48.607Z,22.50
2019-04-25T18:26:35.375Z,22.40
2019-04-25T18:29:08.150Z,22.30
2019-04-25T18:31:36.745Z,22.20
2019-04-25T18:34:07.145Z,22.10
2019-04-25T18:36:47.229Z,22.10
2019-04-25T18:39:23.536Z,22.10
2019-04-25T18:41:53.782Z,22.00
2019-04-25T18:44:22.356Z,21.90
2019-04-25T18:46:51.163Z,21.80
2019-04-25T18:49:20.536Z,21.70
2019-04-25T18:51:57.828Z,21.60
2019-04-25T18:54:21.495Z,21.40
2019-04-25T18:58:20.028Z,21.30
2019-04-25T19:01:06.792Z,21.30
2019-04-25T19:03:55.428Z,21.20
2019-04-25T19:06:25.728Z,21.10
2019-04-25T19:08:57.535Z,21.00
2019-04-25T19:11:31.373Z,21.00
2019-04-25T19:14:01.764Z,20.90
